Time,TemperatureF,DewpointF,PressureIn,WindDirection,WindDirectionDegrees,WindSpeedMPH,WindSpeedGustMPH,Humidity,HourlyPrecipIn,Conditions,Clouds,dailyrainin,SolarRadiationWatts/m^2,SoftwareType,DateUTC
2013-03-29 00:23:00,34.0,23.0,-100.00,East,82,10.0,12.0,65,0.00,,,-99.99,0.000000,,2013-03-29 06:23:00,
2013-03-29 00:32:00,34.0,23.0,-100.00,East,82,10.0,12.0,65,0.00,,,-99.99,0.000000,,2013-03-29 06:32:00,
2013-03-29 00:42:00,34.0,23.0,-100.00,East,82,10.0,12.0,65,0.00,,,-99.99,0.000000,,2013-03-29 06:42:00,
2013-03-29 00:52:00,34.0,23.0,-100.00,East,82,10.0,12.0,65,0.00,,,-99.99,0.000000,,2013-03-29 06:52:00,
2013-03-29 01:22:00,33.0,24.0,-100.00,East,96,8.0,16.0,69,0.00,,,-99.99,0.000000,,2013-03-29 07:22:00,
2013-03-29 01:32:00,33.0,24.0,-100.00,East,96,8.0,16.0,69,0.00,,,-99.99,0.000000,,2013-03-29 07:32:00,
2013-03-29 01:42:00,33.0,24.0,-100.00,East,96,8.0,16.0,69,0.00,,,-99.99,0.000000,,2013-03-29 07:42:00,
2013-03-29 01:52:00,33.0,24.0,-100.00,East,96,8.0,16.0,69,0.00,,,-99.99,0.000000,,2013-03-29 07:52:00,
2013-03-29 02:22:00,32.0,22.0,-100.00,East,94,5.0,8.0,66,0.00,,,-99.99,0.000000,,2013-03-29 08:22:00,
2013-03-29 02:32:00,32.0,22.0,-100.00,East,94,5.0,8.0,66,0.00,,,-99.99,0.000000,,2013-03-29 08:32:00,
2013-03-29 02:42:00,32.0,22.0,-100.00,East,94,5.0,8.0,66,0.00,,,-99.99,0.000000,,2013-03-29 08:42:00,
2013-03-29 02:52:00,32.0,22.0,-100.00,East,94,5.0,8.0,66,0.00,,,-99.99,0.000000,,2013-03-29 08:52:00,
2013-03-29 03:22:00,32.0,22.0,-100.00,East,79,4.0,8.0,65,0.00,,,-99.99,0.000000,,2013-03-29 09:22:00,
2013-03-29 03:33:00,32.0,22.0,-100.00,East,79,4.0,8.0,65,0.00,,,-99.99,0.000000,,2013-03-29 09:33:00,
2013-03-29 03:42:00,32.0,22.0,-100.00,East,79,4.0,8.0,65,0.00,,,-99.99,0.000000,,2013-03-29 09:42:00,
2013-03-29 03:52:00,32.0,22.0,-100.00,East,79,4.0,8.0,65,0.00,,,-99.99,0.000000,,2013-03-29 09:52:00,
2013-03-29 04:23:00,33.0,19.0,-100.00,ESE,104,3.0,7.0,57,0.00,,,-99.99,0.000000,,2013-03-29 10:23:00,
2013-03-29 04:33:00,33.0,19.0,-100.00,ESE,104,3.0,7.0,57,0.00,,,-99.99,0.000000,,2013-03-29 10:33:00,
2013-03-29 04:42:00,33.0,19.0,-100.00,ESE,104,3.0,7.0,57,0.00,,,-99.99,0.000000,,2013-03-29 10:42:00,
2013-03-29 04:52:00,33.0,19.0,-100.00,ESE,104,3.0,7.0,57,0.00,,,-99.99,0.000000,,2013-03-29 10:52:00,
2013-03-29 05:23:00,29.0,19.0,-100.00,ENE,77,4.0,5.0,67,0.00,,,-99.99,0.000000,,2013-03-29 11:23:00,
2013-03-29 05:33:00,29.0,19.0,-100.00,ENE,77,4.0,5.0,67,0.00,,,-99.99,0.000000,,2013-03-29 11:33:00,
2013-03-29 05:42:00,29.0,19.0,-100.00,ENE,77,4.0,5.0,67,0.00,,,-99.99,0.000000,,2013-03-29 11:42:00,
2013-03-29 05:52:00,29.0,19.0,-100.00,ENE,77,4.0,5.0,67,0.00,,,-99.99,0.000000,,2013-03-29 11:52:00,
2013-03-29 06:22:00,29.0,20.0,-100.00,ENE,64,4.0,6.0,68,0.00,,,-99.99,0.000000,,2013-03-29 12:22:00,
2013-03-29 06:32:00,29.0,20.0,-100.00,ENE,64,4.0,6.0,68,0.00,,,-99.99,0.000000,,2013-03-29 12:32:00,
2013-03-29 06:42:00,29.0,20.0,-100.00,ENE,64,4.0,6.0,68,0.00,,,-99.99,0.000000,,2013-03-29 12:42:00,
2013-03-29 06:52:00,29.0,20.0,-100.00,ENE,64,4.0,6.0,68,0.00,,,-99.99,0.000000,,2013-03-29 12:52:00,
2013-03-29 07:22:00,29.0,19.0,-100.00,ENE,70,4.0,6.0,65,0.00,,,-99.99,1.000000,,2013-03-29 13:22:00,
2013-03-29 07:32:00,29.0,19.0,-100.00,ENE,70,4.0,6.0,65,0.00,,,-99.99,1.000000,,2013-03-29 13:32:00,
2013-03-29 07:42:00,29.0,19.0,-100.00,ENE,70,4.0,6.0,65,0.00,,,-99.99,1.000000,,2013-03-29 13:42:00,
2013-03-29 07:52:00,29.0,19.0,-100.00,ENE,70,4.0,6.0,65,0.00,,,-99.99,1.000000,,2013-03-29 13:52:00,
2013-03-29 08:22:00,30.0,24.0,-100.00,East,82,4.0,8.0,79,0.00,,,-99.99,15.000000,,2013-03-29 14:22:00,
2013-03-29 08:32:00,30.0,24.0,-100.00,East,82,4.0,8.0,79,0.00,,,-99.99,15.000000,,2013-03-29 14:32:00,
2013-03-29 08:42:00,30.0,24.0,-100.00,East,82,4.0,8.0,79,0.00,,,-99.99,15.000000,,2013-03-29 14:42:00,
2013-03-29 08:52:00,30.0,24.0,-100.00,East,82,4.0,8.0,79,0.00,,,-99.99,15.000000,,2013-03-29 14:52:00,
2013-03-29 09:22:00,34.0,25.0,-100.00,East,87,8.0,13.0,68,0.00,,,-99.99,143.000000,,2013-03-29 15:22:00,
2013-03-29 09:33:00,34.0,25.0,-100.00,East,87,8.0,13.0,68,0.00,,,-99.99,143.000000,,2013-03-29 15:33:00,
2013-03-29 09:43:00,34.0,25.0,-100.00,East,87,8.0,13.0,68,0.00,,,-99.99,143.000000,,2013-03-29 15:43:00,
2013-03-29 09:52:00,34.0,25.0,-100.00,East,87,8.0,13.0,68,0.00,,,-99.99,143.000000,,2013-03-29 15:52:00,
2013-03-29 10:23:00,39.0,26.0,-100.00,East,87,2.0,13.0,59,0.00,,,-99.99,255.000000,,2013-03-29 16:23:00,
2013-03-29 10:33:00,39.0,26.0,-100.00,East,87,2.0,13.0,59,0.00,,,-99.99,255.000000,,2013-03-29 16:33:00,
2013-03-29 10:42:00,39.0,26.0,-100.00,East,87,2.0,13.0,59,0.00,,,-99.99,255.000000,,2013-03-29 16:42:00,
2013-03-29 10:52:00,39.0,26.0,-100.00,East,87,2.0,13.0,59,0.00,,,-99.99,255.000000,,2013-03-29 16:52:00,
2013-03-29 11:22:00,42.0,23.0,-100.00,WSW,250,5.0,9.0,46,0.00,,,-99.99,462.000000,,2013-03-29 17:22:00,
2013-03-29 11:33:00,42.0,23.0,-100.00,WSW,250,5.0,9.0,46,0.00,,,-99.99,462.000000,,2013-03-29 17:33:00,
2013-03-29 11:43:00,42.0,23.0,-100.00,WSW,250,5.0,9.0,46,0.00,,,-99.99,462.000000,,2013-03-29 17:43:00,
2013-03-29 11:52:00,42.0,23.0,-100.00,WSW,250,5.0,9.0,46,0.00,,,-99.99,462.000000,,2013-03-29 17:52:00,
2013-03-29 12:23:00,45.0,23.0,-100.00,WSW,258,7.0,12.0,41,0.00,,,0.00,469.000000,,2013-03-29 18:23:00,
2013-03-29 12:32:00,45.0,23.0,-100.00,WSW,258,7.0,12.0,41,0.00,,,0.00,469.000000,,2013-03-29 18:32:00,
2013-03-29 12:42:00,45.0,23.0,-100.00,WSW,258,7.0,12.0,41,0.00,,,0.00,469.000000,,2013-03-29 18:42:00,
2013-03-29 12:52:00,45.0,23.0,-100.00,WSW,258,7.0,12.0,41,0.00,,,0.00,469.000000,,2013-03-29 18:52:00,
2013-03-29 13:23:00,48.0,22.0,-100.00,West,261,10.0,20.0,36,0.00,,,0.00,761.000000,,2013-03-29 19:23:00,
2013-03-29 13:32:00,48.0,22.0,-100.00,West,261,10.0,20.0,36,0.00,,,0.00,761.000000,,2013-03-29 19:32:00,
2013-03-29 13:42:00,48.0,22.0,-100.00,West,261,10.0,20.0,36,0.00,,,0.00,761.000000,,2013-03-29 19:42:00,
2013-03-29 13:52:00,48.0,22.0,-100.00,West,261,10.0,20.0,36,0.00,,,0.00,761.000000,,2013-03-29 19:52:00,
2013-03-29 14:22:00,44.0,22.0,-100.00,WNW,293,8.0,24.0,41,0.00,,,0.00,672.000000,,2013-03-29 20:22:00,
2013-03-29 14:33:00,44.0,22.0,-100.00,WNW,293,8.0,24.0,41,0.00,,,0.00,672.000000,,2013-03-29 20:33:00,
2013-03-29 14:42:00,44.0,22.0,-100.00,WNW,293,8.0,24.0,41,0.00,,,0.00,672.000000,,2013-03-29 20:42:00,
2013-03-29 14:52:00,44.0,22.0,-100.00,WNW,293,8.0,24.0,41,0.00,,,0.00,672.000000,,2013-03-29 20:52:00,
2013-03-29 15:22:00,42.0,24.0,-100.00,West,276,13.0,34.0,48,0.00,,,0.00,395.000000,,2013-03-29 21:22:00,
2013-03-29 15:33:00,42.0,24.0,-100.00,West,276,13.0,34.0,48,0.00,,,0.00,395.000000,,2013-03-29 21:33:00,
2013-03-29 15:42:00,42.0,24.0,-100.00,West,276,13.0,34.0,48,0.00,,,0.00,395.000000,,2013-03-29 21:42:00,
2013-03-29 15:53:00,42.0,24.0,-100.00,West,276,13.0,34.0,48,0.00,,,0.00,395.000000,,2013-03-29 21:53:00,
2013-03-29 16:23:00,42.0,26.0,-100.00,SW,216,5.0,23.0,52,0.00,,,0.00,357.000000,,2013-03-29 22:23:00,
2013-03-29 16:33:00,42.0,26.0,-100.00,SW,216,5.0,23.0,52,0.00,,,0.00,357.000000,,2013-03-29 22:33:00,
2013-03-29 16:42:00,42.0,26.0,-100.00,SW,216,5.0,23.0,52,0.00,,,0.00,357.000000,,2013-03-29 22:42:00,
2013-03-29 16:52:00,42.0,26.0,-100.00,SW,216,5.0,23.0,52,0.00,,,0.00,357.000000,,2013-03-29 22:52:00,
2013-03-29 17:22:00,46.0,27.0,-100.00,WSW,246,3.0,23.0,47,0.00,,,0.00,239.000000,,2013-03-29 23:22:00,
2013-03-29 17:32:00,46.0,27.0,-100.00,WSW,246,3.0,23.0,47,0.00,,,0.00,239.000000,,2013-03-29 23:32:00,
2013-03-29 17:42:00,46.0,27.0,-100.00,WSW,246,3.0,23.0,47,0.00,,,0.00,239.000000,,2013-03-29 23:42:00,
2013-03-29 17:52:00,46.0,27.0,-100.00,WSW,246,3.0,23.0,47,0.00,,,0.00,239.000000,,2013-03-29 23:52:00,
2013-03-29 18:22:00,43.0,24.0,-100.00,ESE,111,3.0,8.0,47,0.00,,,0.00,287.000000,,2013-03-30 00:22:00,
2013-03-29 18:32:00,43.0,24.0,-100.00,ESE,111,3.0,8.0,47,0.00,,,0.00,287.000000,,2013-03-30 00:32:00,
2013-03-29 18:42:00,43.0,24.0,-100.00,ESE,111,3.0,8.0,47,0.00,,,0.00,287.000000,,2013-03-30 00:42:00,
2013-03-29 18:52:00,43.0,24.0,-100.00,ESE,111,3.0,8.0,47,0.00,,,0.00,287.000000,,2013-03-30 00:52:00,
2013-03-29 19:22:00,38.0,29.0,-100.00,East,92,4.0,17.0,69,0.00,,,0.00,78.000000,,2013-03-30 01:22:00,
2013-03-29 19:33:00,38.0,29.0,-100.00,East,92,4.0,17.0,69,0.00,,,0.00,78.000000,,2013-03-30 01:33:00,
2013-03-29 19:43:00,38.0,29.0,-100.00,East,92,4.0,17.0,69,0.00,,,0.00,78.000000,,2013-03-30 01:43:00,
2013-03-29 19:52:00,38.0,29.0,-100.00,East,92,4.0,17.0,69,0.00,,,0.00,78.000000,,2013-03-30 01:52:00,
2013-03-29 20:22:00,34.0,30.0,-100.00,ENE,73,3.0,12.0,85,0.00,,,0.00,3.000000,,2013-03-30 02:22:00,
2013-03-29 20:32:00,34.0,30.0,-100.00,ENE,73,3.0,12.0,85,0.00,,,0.00,3.000000,,2013-03-30 02:32:00,
2013-03-29 20:42:00,34.0,30.0,-100.00,ENE,73,3.0,12.0,85,0.00,,,0.00,3.000000,,2013-03-30 02:42:00,
2013-03-29 20:52:00,34.0,30.0,-100.00,ENE,73,3.0,12.0,85,0.00,,,0.00,3.000000,,2013-03-30 02:52:00,
2013-03-29 21:22:00,33.0,30.0,-100.00,East,85,5.0,8.0,87,0.00,,,0.00,0.000000,,2013-03-30 03:22:00,
2013-03-29 21:33:00,33.0,30.0,-100.00,East,85,5.0,8.0,87,0.00,,,0.00,0.000000,,2013-03-30 03:33:00,
2013-03-29 21:43:00,33.0,30.0,-100.00,East,85,5.0,8.0,87,0.00,,,0.00,0.000000,,2013-03-30 03:43:00,
2013-03-29 21:53:00,33.0,30.0,-100.00,East,85,5.0,8.0,87,0.00,,,0.00,0.000000,,2013-03-30 03:53:00,
2013-03-29 22:23:00,32.0,29.0,-100.00,ENE,62,5.0,7.0,88,0.00,,,0.00,0.000000,,2013-03-30 04:23:00,
2013-03-29 22:32:00,32.0,29.0,-100.00,ENE,62,5.0,7.0,88,0.00,,,0.00,0.000000,,2013-03-30 04:32:00,
2013-03-29 22:43:00,32.0,29.0,-100.00,ENE,62,5.0,7.0,88,0.00,,,0.00,0.000000,,2013-03-30 04:43:00,
2013-03-29 22:52:00,32.0,29.0,-100.00,ENE,62,5.0,7.0,88,0.00,,,0.00,0.000000,,2013-03-30 04:52:00,
2013-03-29 23:22:00,34.0,30.0,-100.00,NNW,330,5.0,14.0,84,0.00,,,0.00,0.000000,,2013-03-30 05:22:00,
2013-03-29 23:32:00,34.0,30.0,-100.00,NNW,330,5.0,14.0,84,0.00,,,0.00,0.000000,,2013-03-30 05:32:00,
2013-03-29 23:42:00,34.0,30.0,-100.00,NNW,330,5.0,14.0,84,0.00,,,0.00,0.000000,,2013-03-30 05:42:00,
2013-03-29 23:52:00,34.0,30.0,-100.00,NNW,330,5.0,14.0,84,0.00,,,0.00,0.000000,,2013-03-30 05:52:00,